createdAt,value
2023-04-28T00:01:16.897Z,2.16
2023-04-28T00:06:18.279Z,2.16
2023-04-28T00:11:19.267Z,2.20
2023-04-28T00:16:20.340Z,2.31
2023-04-28T00:21:21.836Z,2.42
2023-04-28T00:26:23.081Z,2.47
2023-04-28T00:31:24.235Z,2.46
2023-04-28T00:36:26.103Z,2.37
2023-04-28T00:41:28.442Z,2.21
2023-04-28T00:46:33.875Z,2.01
2023-04-28T00:51:35.043Z,1.83
2023-04-28T00:56:36.093Z,1.73
2023-04-28T01:01:37.822Z,1.74
2023-04-28T01:06:41.695Z,1.69
2023-04-28T01:11:42.700Z,1.59
2023-04-28T01:16:45.479Z,1.47
2023-04-28T01:21:46.633Z,1.37
2023-04-28T01:26:57.675Z,1.28
2023-04-28T01:31:58.805Z,1.22
2023-04-28T01:37:00.041Z,1.23
2023-04-28T01:42:01.595Z,1.33
2023-04-28T01:47:02.850Z,1.46
2023-04-28T01:52:04.167Z,1.54
2023-04-28T01:57:06.835Z,1.47
2023-04-28T02:02:08.421Z,1.39
2023-04-28T02:07:09.736Z,1.31
2023-04-28T02:12:10.841Z,1.18
2023-04-28T02:17:12.392Z,1.05
2023-04-28T02:22:13.810Z,1.03
2023-04-28T02:27:15.146Z,1.05
2023-04-28T02:32:16.385Z,0.98
2023-04-28T02:37:17.374Z,0.84
2023-04-28T02:42:18.642Z,0.72
2023-04-28T02:47:20.540Z,0.62
2023-04-28T02:52:21.581Z,0.59
2023-04-28T02:57:23.863Z,0.58
2023-04-28T03:02:25.359Z,0.53
2023-04-28T03:07:26.445Z,0.45
2023-04-28T03:12:27.868Z,0.33
2023-04-28T03:17:29.837Z,0.19
2023-04-28T03:22:30.862Z,0.11
2023-04-28T03:27:32.399Z,0.08
2023-04-28T03:32:33.447Z,0.14
2023-04-28T03:37:34.578Z,0.22
2023-04-28T03:42:35.784Z,0.26
2023-04-28T03:47:44.488Z,0.27
2023-04-28T03:52:45.806Z,0.30
2023-04-28T03:57:47.279Z,0.40
2023-04-28T04:02:48.824Z,0.62
2023-04-28T04:07:50.387Z,0.88
2023-04-28T04:12:51.564Z,1.16
2023-04-28T04:17:52.808Z,1.45
2023-04-28T04:22:55.620Z,1.76
2023-04-28T04:27:56.689Z,2.11
2023-04-28T04:32:57.811Z,2.53
2023-04-28T04:38:00.617Z,3.03
2023-04-28T04:43:02.230Z,3.59
2023-04-28T04:48:11.928Z,4.09
2023-04-28T04:53:16.083Z,4.44
2023-04-28T04:58:22.369Z,4.68
2023-04-28T05:03:53.161Z,4.86
2023-04-28T05:08:56.046Z,5.01
2023-04-28T05:13:57.843Z,5.15
2023-04-28T05:18:59.347Z,5.28
2023-04-28T05:24:01.408Z,5.44
2023-04-28T05:29:03.373Z,5.70
2023-04-28T05:34:04.457Z,5.97
2023-04-28T05:39:11.084Z,6.31
2023-04-28T05:44:15.493Z,6.64
2023-04-28T05:49:17.225Z,6.93
2023-04-28T05:54:18.954Z,7.20
2023-04-28T05:59:22.934Z,7.36
2023-04-28T06:04:33.008Z,7.56
2023-04-28T06:09:36.089Z,7.80
2023-04-28T06:14:37.283Z,8.07
2023-04-28T06:19:38.324Z,8.31
2023-04-28T06:24:41.163Z,8.54
2023-04-28T06:29:44.859Z,8.77
2023-04-28T06:34:45.827Z,9.10
2023-04-28T06:39:47.273Z,9.46
2023-04-28T06:44:48.246Z,9.79
2023-04-28T06:49:49.616Z,10.06
2023-04-28T06:54:50.894Z,10.27
2023-04-28T06:59:51.906Z,10.47
2023-04-28T07:04:52.877Z,10.62
2023-04-28T07:09:54.016Z,10.82
2023-04-28T07:14:55.402Z,11.05
2023-04-28T07:19:58.117Z,11.32
2023-04-28T07:24:59.081Z,11.58
2023-04-28T07:30:01.900Z,11.84
2023-04-28T07:35:06.521Z,12.13
2023-04-28T07:40:08.414Z,12.36
2023-04-28T07:45:19.320Z,12.61
2023-04-28T07:50:20.503Z,12.82
2023-04-28T07:55:21.861Z,13.02
2023-04-28T08:00:23.099Z,13.22
2023-04-28T08:05:24.547Z,13.39
2023-04-28T08:10:26.100Z,13.56
2023-04-28T08:15:27.373Z,13.78
2023-04-28T08:20:29.574Z,13.97
2023-04-28T08:25:30.674Z,14.10
2023-04-28T08:30:33.032Z,14.16
2023-04-28T08:35:34.069Z,14.27
2023-04-28T08:40:36.802Z,14.36
2023-04-28T08:45:42.889Z,14.51
2023-04-28T08:50:49.612Z,14.65
2023-04-28T08:55:54.796Z,14.67
2023-04-28T09:00:56.287Z,14.66
2023-04-28T09:05:57.740Z,14.69
2023-04-28T09:11:07.317Z,14.71
2023-04-28T09:16:08.543Z,14.75
2023-04-28T09:21:09.709Z,14.83
2023-04-28T09:26:10.706Z,14.91
2023-04-28T09:31:26.614Z,15.01
2023-04-28T09:36:31.953Z,15.09
2023-04-28T09:41:37.737Z,15.08
2023-04-28T09:46:39.514Z,15.16
2023-04-28T09:51:41.004Z,15.34
2023-04-28T09:56:43.473Z,15.47
2023-04-28T10:01:45.661Z,15.50
2023-04-28T10:06:47.207Z,15.58
2023-04-28T10:11:48.617Z,15.68
2023-04-28T10:16:51.434Z,16.03
2023-04-28T10:22:06.839Z,16.43
2023-04-28T10:27:09.124Z,16.87
2023-04-28T10:32:28.383Z,16.95
2023-04-28T10:38:07.756Z,16.92
2023-04-28T10:43:10.751Z,16.91
2023-04-28T10:48:11.725Z,17.02
2023-04-28T10:53:12.727Z,17.06
2023-04-28T10:58:19.441Z,17.05
2023-04-28T11:03:39.870Z,17.05
2023-04-28T11:08:41.287Z,17.22
2023-04-28T11:13:42.850Z,17.48
2023-04-28T11:18:55.953Z,17.72
2023-04-28T11:23:58.461Z,17.73
2023-04-28T11:28:59.544Z,17.73
2023-04-28T11:34:06.877Z,17.91
2023-04-28T11:39:09.920Z,18.18
2023-04-28T11:44:16.877Z,18.30
2023-04-28T11:49:19.170Z,18.23
2023-04-28T11:54:29.465Z,18.29
2023-04-28T11:59:34.774Z,18.30
2023-04-28T12:04:37.428Z,18.47
2023-04-28T12:09:40.960Z,18.55
2023-04-28T12:14:59.016Z,18.66
2023-04-28T12:20:02.213Z,18.94
2023-04-28T12:25:08.593Z,19.32
2023-04-28T12:30:19.036Z,19.57
2023-04-28T12:35:22.854Z,19.69
2023-04-28T12:40:24.147Z,19.80
2023-04-28T12:45:25.227Z,19.75
2023-04-28T12:50:27.285Z,19.26
2023-04-28T12:55:28.796Z,18.92
2023-04-28T13:00:30.183Z,18.90
2023-04-28T13:05:32.385Z,19.26
2023-04-28T13:10:33.387Z,19.54
2023-04-28T13:15:36.753Z,19.64
2023-04-28T13:20:39.770Z,19.57
2023-04-28T13:25:41.324Z,19.47
2023-04-28T13:30:42.344Z,19.35
2023-04-28T13:35:43.863Z,19.41
2023-04-28T13:40:44.998Z,19.46
2023-04-28T13:45:46.465Z,19.68
2023-04-28T13:50:47.628Z,20.09
2023-04-28T13:55:50.757Z,20.49
2023-04-28T14:00:54.065Z,20.80
2023-04-28T14:05:57.935Z,21.14
2023-04-28T14:10:59.128Z,21.49
2023-04-28T14:16:00.309Z,21.71
2023-04-28T14:21:07.467Z,21.56
2023-04-28T14:26:08.487Z,21.79
2023-04-28T14:31:10.051Z,21.98
2023-04-28T14:36:11.206Z,21.74
2023-04-28T14:41:12.359Z,21.43
2023-04-28T14:46:13.726Z,21.14
2023-04-28T14:51:15.991Z,20.88
2023-04-28T14:56:19.229Z,20.84
2023-04-28T15:01:21.039Z,20.93
2023-04-28T15:06:22.101Z,20.86
2023-04-28T15:11:23.332Z,20.65
2023-04-28T15:16:24.461Z,20.40
2023-04-28T15:21:25.586Z,20.21
2023-04-28T15:26:29.984Z,20.17
2023-04-28T15:31:31.245Z,20.15
2023-04-28T15:36:37.015Z,20.00
2023-04-28T15:41:38.095Z,19.80
2023-04-28T15:46:39.377Z,19.66
2023-04-28T15:51:40.323Z,19.55
2023-04-28T15:56:42.007Z,19.48
2023-04-28T16:01:44.085Z,19.37
2023-04-28T16:06:45.335Z,19.19
2023-04-28T16:11:46.536Z,18.76
2023-04-28T16:16:47.562Z,18.44
2023-04-28T16:21:49.073Z,18.24
2023-04-28T16:26:51.232Z,18.06
2023-04-28T16:31:52.423Z,17.86
2023-04-28T16:36:53.535Z,17.51
2023-04-28T16:41:54.837Z,17.08
2023-04-28T16:47:00.002Z,16.69
2023-04-28T16:52:03.418Z,16.35
2023-04-28T16:57:04.435Z,16.07
2023-04-28T17:02:06.069Z,15.85
2023-04-28T17:07:07.710Z,15.61
2023-04-28T17:12:08.895Z,15.46
2023-04-28T17:17:09.940Z,15.28
2023-04-28T17:22:11.622Z,15.10
2023-04-28T17:27:14.167Z,14.92
2023-04-28T17:32:15.469Z,14.74
2023-04-28T17:37:16.695Z,14.58
2023-04-28T17:42:17.805Z,14.42
2023-04-28T17:47:18.773Z,14.20
2023-04-28T17:52:20.125Z,13.97
2023-04-28T17:57:21.082Z,13.71
2023-04-28T18:02:22.117Z,13.47
2023-04-28T18:07:23.114Z,13.23
2023-04-28T18:12:25.479Z,13.02
2023-04-28T18:17:26.582Z,12.78
2023-04-28T18:22:27.728Z,12.56
2023-04-28T18:27:28.712Z,12.31
2023-04-28T18:32:33.144Z,12.06
2023-04-28T18:37:36.436Z,11.86
2023-04-28T18:42:37.531Z,11.66
2023-04-28T18:47:39.492Z,11.47
2023-04-28T18:52:41.359Z,11.25
2023-04-28T18:57:43.050Z,11.02
2023-04-28T19:02:44.531Z,10.78
2023-04-28T19:07:45.975Z,10.54
2023-04-28T19:12:46.969Z,10.30
2023-04-28T19:17:48.003Z,10.11
2023-04-28T19:22:50.993Z,9.96
2023-04-28T19:27:52.256Z,9.81
2023-04-28T19:32:53.358Z,9.66
2023-04-28T19:37:55.219Z,9.53
2023-04-28T19:43:06.780Z,9.43
2023-04-28T19:48:08.097Z,9.31
2023-04-28T19:53:09.278Z,9.20
2023-04-28T19:58:10.587Z,9.08
2023-04-28T20:03:12.470Z,8.93
2023-04-28T20:08:13.647Z,8.77
2023-04-28T20:13:14.694Z,8.67
2023-04-28T20:18:16.765Z,8.61
2023-04-28T20:23:17.776Z,8.60
2023-04-28T20:28:18.745Z,8.57
2023-04-28T20:33:19.827Z,8.50
2023-04-28T20:38:21.670Z,8.47
2023-04-28T20:43:23.420Z,8.41
2023-04-28T20:48:24.541Z,8.32
2023-04-28T20:53:26.052Z,8.23
2023-04-28T20:58:27.600Z,8.11
2023-04-28T21:03:30.056Z,7.96
2023-04-28T21:08:31.469Z,7.85
2023-04-28T21:13:36.542Z,7.84
2023-04-28T21:18:37.620Z,7.90
2023-04-28T21:23:39.209Z,7.98
2023-04-28T21:28:40.902Z,8.09
2023-04-28T21:33:42.192Z,8.27
2023-04-28T21:38:43.358Z,8.51
2023-04-28T21:43:59.068Z,8.66
2023-04-28T21:49:02.975Z,8.73
2023-04-28T21:54:05.104Z,8.75
2023-04-28T21:59:06.253Z,8.78
2023-04-28T22:04:08.133Z,8.79
2023-04-28T22:09:09.446Z,8.81
2023-04-28T22:14:13.584Z,8.84
2023-04-28T22:19:19.460Z,8.88
2023-04-28T22:24:20.516Z,8.93
2023-04-28T22:29:21.876Z,8.98
2023-04-28T22:34:23.476Z,9.03
2023-04-28T22:39:26.205Z,9.08
2023-04-28T22:44:27.528Z,9.13
2023-04-28T22:49:29.881Z,9.20
2023-04-28T22:54:31.336Z,9.26
2023-04-28T22:59:32.598Z,9.31
2023-04-28T23:04:34.113Z,9.39
2023-04-28T23:09:36.658Z,9.46
2023-04-28T23:14:43.185Z,9.54
2023-04-28T23:19:44.225Z,9.61
2023-04-28T23:24:45.239Z,9.67
2023-04-28T23:29:46.401Z,9.69
2023-04-28T23:34:47.348Z,9.68
2023-04-28T23:39:50.166Z,9.66
2023-04-28T23:44:51.966Z,9.64
2023-04-28T23:50:00.065Z,9.62
2023-04-28T23:55:01.537Z,9.59
